Time;durP1;ratioP1;P1;durP2;ratioP2;P2;SDS_P1;SDS_P2;PMS_P1;PMS_P2;Temp;Humidity;BMP_temperature;BMP_pressure;BME280_temperature;BME280_humidity;BME280_pressure;Samples;Min_cycle;Max_cycle;Signal;HPM_P1;HPM_P2
2022/08/19 00:02:19;;;;;;;2.15;1.52;;;22.60;68.10;;;;;;6022766;29;20049;-73
2022/08/19 00:05:21;;;;;;;2.53;1.80;;;22.50;67.90;;;;;;6008741;29;20457;-73
2022/08/19 00:08:22;;;;;;;3.35;1.80;;;22.40;67.80;;;;;;6013046;29;20492;-73
2022/08/19 00:11:25;;;;;;;2.35;1.50;;;22.40;67.80;;;;;;6013805;29;20109;-73
2022/08/19 00:14:27;;;;;;;2.13;1.33;;;22.40;67.70;;;;;;6013142;29;20121;-73
2022/08/19 00:17:28;;;;;;;2.25;1.63;;;22.40;67.50;;;;;;6013379;29;20034;-73
2022/08/19 00:20:29;;;;;;;3.40;1.75;;;22.40;67.40;;;;;;6013621;29;20045;-73
2022/08/19 00:23:33;;;;;;;2.25;1.52;;;22.40;68.30;;;;;;6013205;29;20046;-73
2022/08/19 00:26:35;;;;;;;2.20;1.60;;;22.40;67.10;;;;;;6013182;29;20074;-73
2022/08/19 00:29:36;;;;;;;1.95;1.60;;;22.50;67.10;;;;;;6012939;29;20038;-73
2022/08/19 00:32:38;;;;;;;3.20;1.52;;;22.50;67.00;;;;;;6013312;29;20038;-73
2022/08/19 00:35:39;;;;;;;1.65;1.33;;;22.60;66.90;;;;;;6016423;29;20033;-73
2022/08/19 00:38:43;;;;;;;1.90;1.52;;;22.60;66.40;;;;;;6011610;29;20042;-73
2022/08/19 00:41:47;;;;;;;4.20;1.15;;;22.60;66.10;;;;;;6007388;29;20537;-73
2022/08/19 00:44:49;;;;;;;7.75;1.17;;;22.70;66.00;;;;;;6013784;29;20046;-73
2022/08/19 00:47:49;;;;;;;2.05;1.58;;;22.70;65.80;;;;;;5997226;29;20511;-73
2022/08/19 00:50:53;;;;;;;2.15;1.40;;;22.70;65.60;;;;;;6012838;29;20042;-73
2022/08/19 00:53:56;;;;;;;1.67;1.25;;;22.80;65.60;;;;;;6013594;29;20619;-73
2022/08/19 00:56:59;;;;;;;3.30;1.55;;;22.70;65.50;;;;;;6027483;29;20045;-73
2022/08/19 01:00:04;;;;;;;2.65;1.63;;;22.70;65.60;;;;;;6012734;29;20042;-73
2022/08/19 01:03:07;;;;;;;3.53;1.20;;;22.70;65.70;;;;;;6009794;29;20044;-73
2022/08/19 01:06:08;;;;;;;1.85;1.20;;;22.70;66.00;;;;;;6028126;29;20114;-73
2022/08/19 01:09:10;;;;;;;1.98;1.50;;;22.70;66.10;;;;;;6012325;29;20054;-73
2022/08/19 01:12:11;;;;;;;1.65;1.40;;;22.60;66.00;;;;;;6012963;29;20106;-73
2022/08/19 01:15:18;;;;;;;2.05;1.58;;;22.60;66.20;;;;;;6014007;29;20076;-73
2022/08/19 01:18:21;;;;;;;1.98;1.52;;;22.60;66.30;;;;;;6013711;29;20123;-73
2022/08/19 01:21:41;;;;;;;2.25;1.55;;;22.70;66.20;;;;;;6013306;29;20068;-73
2022/08/19 01:24:43;;;;;;;1.58;1.45;;;22.70;66.20;;;;;;6013250;29;20049;-73
2022/08/19 01:27:47;;;;;;;2.78;1.35;;;22.70;66.10;;;;;;5996723;29;20046;-73
2022/08/19 01:30:49;;;;;;;3.17;1.75;;;22.70;66.10;;;;;;5979561;29;20050;-73
2022/08/19 01:33:52;;;;;;;1.77;1.60;;;22.80;66.10;;;;;;6000226;29;20053;-73
2022/08/19 01:36:53;;;;;;;2.38;1.70;;;22.80;66.20;;;;;;6013683;29;20494;-73
2022/08/19 01:39:54;;;;;;;2.13;1.67;;;22.80;66.20;;;;;;6012603;29;20045;-73
2022/08/19 01:42:55;;;;;;;2.95;1.77;;;22.80;66.10;;;;;;5996259;29;20349;-73
2022/08/19 01:45:57;;;;;;;1.58;1.40;;;22.80;66.10;;;;;;6012682;29;20046;-73
2022/08/19 01:48:58;;;;;;;5.18;1.40;;;22.80;66.20;;;;;;6013349;29;20049;-73
2022/08/19 01:52:01;;;;;;;2.10;1.77;;;22.80;66.40;;;;;;6013424;29;20046;-73
2022/08/19 01:55:03;;;;;;;2.00;1.80;;;22.70;66.50;;;;;;5997003;29;20045;-73
2022/08/19 01:58:06;;;;;;;3.28;2.20;;;22.70;66.80;;;;;;6013350;29;20125;-73
2022/08/19 02:01:08;;;;;;;5.13;2.47;;;22.60;66.90;;;;;;5994896;29;20034;-73
2022/08/19 02:04:09;;;;;;;5.03;2.10;;;22.60;67.00;;;;;;6000748;29;20528;-73
2022/08/19 02:07:10;;;;;;;3.85;2.70;;;22.60;66.90;;;;;;5996476;29;20741;-73
2022/08/19 02:10:15;;;;;;;2.88;2.25;;;22.60;66.90;;;;;;5999625;29;20034;-73
2022/08/19 02:13:17;;;;;;;4.75;2.47;;;22.60;66.90;;;;;;6012405;29;20416;-73
2022/08/19 02:16:19;;;;;;;3.50;1.88;;;22.60;66.80;;;;;;5996184;29;20038;-73
2022/08/19 02:19:20;;;;;;;2.72;1.73;;;22.60;66.70;;;;;;5996694;29;20388;-73
2022/08/19 02:22:21;;;;;;;8.00;1.50;;;22.60;66.60;;;;;;5996297;29;20045;-73
2022/08/19 02:25:22;;;;;;;2.20;1.70;;;22.60;66.30;;;;;;6011673;29;20055;-73
2022/08/19 02:28:23;;;;;;;3.58;2.30;;;22.60;66.30;;;;;;6012493;29;20120;-73
2022/08/19 02:31:25;;;;;;;4.00;2.60;;;22.60;66.40;;;;;;5996487;29;20044;-73
2022/08/19 02:34:26;;;;;;;2.70;2.20;;;22.70;66.50;;;;;;5999305;29;20086;-73
2022/08/19 02:40:52;;;;;;;2.80;1.55;;;22.70;66.50;;;;;;6005831;29;20102;-73
2022/08/19 02:43:57;;;;;;;1.60;1.40;;;22.80;66.30;;;;;;6010230;29;20046;-73
2022/08/19 02:46:59;;;;;;;3.08;1.80;;;22.80;66.20;;;;;;6010844;29;20050;-73
2022/08/19 02:50:01;;;;;;;2.15;1.50;;;22.80;66.10;;;;;;6009833;29;20062;-73
2022/08/19 02:53:02;;;;;;;3.45;2.22;;;22.80;65.90;;;;;;5994849;29;20048;-74
2022/08/19 02:56:07;;;;;;;1.98;1.65;;;22.80;66.00;;;;;;6010503;29;20061;-73
2022/08/19 02:59:09;;;;;;;2.30;2.00;;;22.80;66.10;;;;;;5994536;29;20128;-73
2022/08/19 03:02:10;;;;;;;2.83;1.90;;;22.70;66.40;;;;;;5994085;29;20361;-73
2022/08/19 03:05:11;;;;;;;7.57;2.47;;;22.60;66.70;;;;;;5979074;29;20069;-73
2022/08/19 03:08:13;;;;;;;4.57;2.40;;;22.50;67.20;;;;;;5991520;29;20041;-74
2022/08/19 03:11:21;;;;;;;2.53;1.63;;;22.40;67.80;;;;;;6009613;29;20480;-74
2022/08/19 03:14:23;;;;;;;4.15;2.15;;;22.30;68.60;;;;;;5994358;29;20057;-74
2022/08/19 03:17:24;;;;;;;2.75;1.95;;;22.20;69.00;;;;;;6010021;29;20038;-74
2022/08/19 03:20:26;;;;;;;4.60;1.98;;;22.00;69.40;;;;;;5993510;29;20030;-74
2022/08/19 03:23:27;;;;;;;2.97;1.98;;;21.90;69.70;;;;;;5978506;29;20042;-74
2022/08/19 03:26:29;;;;;;;3.65;2.15;;;21.90;70.00;;;;;;6009852;29;20057;-73
2022/08/19 03:29:31;;;;;;;3.67;2.30;;;21.90;71.20;;;;;;5988410;29;20117;-73
2022/08/19 03:32:32;;;;;;;3.20;1.88;;;21.90;70.20;;;;;;5994343;29;20065;-73
2022/08/19 03:35:36;;;;;;;3.58;2.00;;;21.90;70.20;;;;;;6009929;29;20124;-74
2022/08/19 03:38:42;;;;;;;2.00;1.73;;;22.00;70.30;;;;;;6008473;29;20034;-74
2022/08/19 03:41:45;;;;;;;3.97;1.70;;;22.00;70.20;;;;;;6009139;29;20233;-74
2022/08/19 03:44:46;;;;;;;5.50;1.90;;;22.00;70.20;;;;;;6000516;29;20042;-74
2022/08/19 03:47:47;;;;;;;3.20;2.00;;;22.10;70.40;;;;;;5993331;29;20045;-74
2022/08/19 03:50:49;;;;;;;2.28;1.60;;;22.10;70.30;;;;;;6009885;29;20121;-74
2022/08/19 03:53:52;;;;;;;5.88;1.95;;;22.10;70.40;;;;;;6011772;29;20038;-74
2022/08/19 03:56:55;;;;;;;2.50;1.73;;;22.10;70.50;;;;;;6009421;29;20046;-74
2022/08/19 03:59:56;;;;;;;2.95;1.80;;;22.10;70.60;;;;;;5993806;29;20065;-74
2022/08/19 04:02:57;;;;;;;2.28;1.60;;;22.10;70.60;;;;;;6011956;29;20097;-74
2022/08/19 04:05:58;;;;;;;2.72;1.65;;;22.10;70.60;;;;;;5987794;29;20064;-74
2022/08/19 04:09:01;;;;;;;5.10;1.67;;;22.20;70.60;;;;;;5994641;29;20540;-74
2022/08/19 04:12:05;;;;;;;2.53;1.58;;;22.10;70.50;;;;;;5994487;29;20052;-74
2022/08/19 04:15:08;;;;;;;3.13;1.70;;;22.10;70.30;;;;;;5994799;29;20070;-74
2022/08/19 04:18:10;;;;;;;3.03;1.80;;;22.20;70.10;;;;;;6010355;29;20046;-74
2022/08/19 04:21:20;;;;;;;3.42;1.70;;;22.10;70.00;;;;;;6010474;29;20038;-73
2022/08/19 04:24:22;;;;;;;5.38;2.70;;;22.20;70.10;;;;;;6009907;29;20492;-74
2022/08/19 04:27:23;;;;;;;2.50;1.45;;;22.20;69.90;;;;;;6010784;29;20108;-74
2022/08/19 04:30:24;;;;;;;1.75;1.60;;;22.20;69.90;;;;;;6010107;29;20053;-74
2022/08/19 04:33:25;;;;;;;4.57;1.40;;;22.30;69.90;;;;;;5997241;29;20060;-74
2022/08/19 04:36:29;;;;;;;4.80;1.48;;;22.30;69.90;;;;;;5979060;29;20042;-74
2022/08/19 04:42:50;;;;;;;3.25;1.80;;;22.40;69.60;;;;;;5996268;29;20038;-74
2022/08/19 04:45:53;;;;;;;2.22;1.40;;;22.40;69.20;;;;;;5994375;29;20053;-73
2022/08/19 04:48:56;;;;;;;1.70;1.48;;;22.40;69.00;;;;;;6010793;29;20046;-74
2022/08/19 04:51:57;;;;;;;1.70;1.40;;;22.50;68.90;;;;;;6010266;29;20069;-74
2022/08/19 04:54:58;;;;;;;1.70;1.23;;;22.50;68.80;;;;;;5994098;29;20484;-74
2022/08/19 04:57:59;;;;;;;1.83;1.30;;;22.50;68.70;;;;;;5997329;29;20558;-74
2022/08/19 05:01:01;;;;;;;5.70;1.40;;;22.60;68.70;;;;;;5998119;29;20046;-74
2022/08/19 05:04:04;;;;;;;3.08;1.60;;;22.60;68.40;;;;;;6003330;29;20042;-76
2022/08/19 05:07:07;;;;;;;2.80;2.03;;;22.60;68.30;;;;;;6013760;29;20046;-74
2022/08/19 05:10:08;;;;;;;1.77;1.30;;;22.60;68.20;;;;;;6013590;29;20045;-74
2022/08/19 05:13:10;;;;;;;2.47;1.85;;;22.60;67.90;;;;;;5982261;29;20034;-74
2022/08/19 05:16:13;;;;;;;1.95;1.75;;;22.60;67.60;;;;;;5997384;29;20058;-74
2022/08/19 05:22:36;;;;;;;2.28;1.42;;;22.60;67.50;;;;;;6008394;29;20117;-74
2022/08/19 05:25:40;;;;;;;7.70;2.10;;;22.50;67.50;;;;;;6013402;29;20125;-74
2022/08/19 05:28:41;;;;;;;2.72;1.80;;;22.50;67.40;;;;;;6013502;29;20136;-74
2022/08/19 05:31:43;;;;;;;2.05;1.70;;;22.50;67.50;;;;;;6013676;29;20060;-74
2022/08/19 05:34:44;;;;;;;2.20;1.67;;;22.50;67.50;;;;;;6007355;29;20034;-75
2022/08/19 05:37:45;;;;;;;2.30;1.70;;;22.50;67.60;;;;;;6013178;29;20074;-74
2022/08/19 05:40:49;;;;;;;2.20;1.80;;;22.50;67.60;;;;;;6012153;29;20046;-74
2022/08/19 05:43:50;;;;;;;8.27;2.40;;;22.50;67.70;;;;;;6012977;29;20060;-74
2022/08/19 05:46:54;;;;;;;2.72;2.15;;;22.50;67.70;;;;;;6015442;29;20046;-74
2022/08/19 05:49:55;;;;;;;2.17;1.75;;;22.50;67.70;;;;;;5981872;29;20491;-74
2022/08/19 05:52:56;;;;;;;2.35;1.85;;;22.50;67.50;;;;;;5981666;29;20042;-74
2022/08/19 05:55:58;;;;;;;3.78;2.00;;;22.60;67.30;;;;;;5996412;29;20106;-74
2022/08/19 05:58:58;;;;;;;2.38;1.67;;;22.50;67.10;;;;;;6013018;29;20114;-74
2022/08/19 06:02:00;;;;;;;2.45;1.65;;;22.60;67.00;;;;;;5996869;29;20421;-74
2022/08/19 06:05:03;;;;;;;2.60;1.73;;;22.60;66.90;;;;;;6007093;29;20090;-74
2022/08/19 06:08:05;;;;;;;2.70;1.80;;;22.70;66.70;;;;;;6011839;29;20042;-74
2022/08/19 06:11:14;;;;;;;14.43;1.70;;;22.80;66.60;;;;;;5999128;29;20034;-73
2022/08/19 06:14:20;;;;;;;3.45;1.52;;;22.90;66.40;;;;;;6000476;29;20079;-73
2022/08/19 06:17:25;;;;;;;3.08;1.92;;;22.90;66.10;;;;;;5996189;29;20460;-74
2022/08/19 06:20:26;;;;;;;2.42;1.60;;;23.00;65.90;;;;;;6011350;29;20038;-74
2022/08/19 06:23:27;;;;;;;1.98;1.45;;;23.10;65.70;;;;;;5996453;29;20061;-74
2022/08/19 06:26:29;;;;;;;1.25;1.10;;;23.10;65.50;;;;;;6009629;29;20054;-74
2022/08/19 06:29:31;;;;;;;1.42;1.30;;;23.10;65.40;;;;;;6011222;29;20048;-74
2022/08/19 06:32:32;;;;;;;2.63;1.50;;;23.00;65.20;;;;;;5998271;29;20492;-74
2022/08/19 06:35:39;;;;;;;1.83;1.52;;;23.00;65.20;;;;;;6010630;29;20140;-74
2022/08/19 06:38:40;;;;;;;1.38;1.23;;;23.00;65.30;;;;;;6011767;29;20037;-75
2022/08/19 06:41:45;;;;;;;4.45;1.83;;;23.00;65.50;;;;;;6009641;29;20409;-74
2022/08/19 06:44:51;;;;;;;2.42;1.70;;;23.00;65.60;;;;;;6011045;29;20106;-74
2022/08/19 06:47:55;;;;;;;4.30;1.52;;;23.10;65.90;;;;;;6010392;29;20376;-74
2022/08/19 06:50:56;;;;;;;2.35;1.23;;;23.10;65.90;;;;;;6016444;29;20072;-74
2022/08/19 06:53:58;;;;;;;3.63;1.40;;;23.20;65.80;;;;;;6010655;29;20170;-74
2022/08/19 06:57:02;;;;;;;3.42;1.90;;;23.20;65.70;;;;;;6009796;29;20053;-74
2022/08/19 07:00:05;;;;;;;6.25;2.10;;;23.30;65.80;;;;;;6011545;29;20191;-74
2022/08/19 07:03:07;;;;;;;3.53;2.10;;;23.30;65.80;;;;;;6010789;29;20496;-74
2022/08/19 07:06:19;;;;;;;2.72;1.98;;;23.40;65.90;;;;;;6011795;29;20061;-74
2022/08/19 07:09:20;;;;;;;9.38;2.20;;;23.40;66.20;;;;;;6010475;29;20048;-74
2022/08/19 07:12:21;;;;;;;6.15;2.17;;;23.40;66.30;;;;;;6009282;29;20045;-73
2022/08/19 07:15:23;;;;;;;5.22;2.53;;;23.50;66.40;;;;;;6010281;29;20129;-73
2022/08/19 07:18:24;;;;;;;3.33;2.25;;;23.50;66.40;;;;;;6009697;29;20050;-74
2022/08/19 07:21:27;;;;;;;3.83;2.20;;;23.50;67.20;;;;;;6010437;29;20053;-74
2022/08/19 07:24:30;;;;;;;6.53;2.63;;;23.60;66.40;;;;;;6009752;29;20050;-74
2022/08/19 07:27:31;;;;;;;4.10;2.17;;;23.70;66.40;;;;;;6009308;29;20030;-73
2022/08/19 07:30:32;;;;;;;5.57;2.67;;;23.70;66.40;;;;;;6009664;29;20074;-74
2022/08/19 07:33:35;;;;;;;2.45;2.00;;;23.70;66.40;;;;;;6009945;29;20107;-74
2022/08/19 07:36:40;;;;;;;2.13;1.60;;;23.70;66.40;;;;;;6010261;29;20094;-74
2022/08/19 07:39:41;;;;;;;2.15;1.60;;;23.70;66.10;;;;;;5992969;29;20038;-74
2022/08/19 07:42:43;;;;;;;2.67;1.80;;;23.70;65.90;;;;;;6009044;29;20487;-76
2022/08/19 07:45:44;;;;;;;3.22;1.70;;;23.80;65.80;;;;;;6012111;29;20053;-74
2022/08/19 07:48:46;;;;;;;6.38;1.92;;;23.80;65.80;;;;;;6008188;29;20076;-75
2022/08/19 07:51:53;;;;;;;1.90;1.67;;;23.90;65.60;;;;;;6008171;29;20034;-74
2022/08/19 07:54:54;;;;;;;2.43;1.67;;;24.00;66.10;;;;;;5974896;29;20321;-75
2022/08/19 07:57:56;;;;;;;5.18;1.95;;;24.10;64.90;;;;;;6009382;29;20058;-75
2022/08/19 08:00:57;;;;;;;3.08;1.80;;;24.10;64.70;;;;;;5995802;29;20042;-74
2022/08/19 08:10:38;;;;;;;6.18;1.80;;;24.50;63.80;;;;;;5987905;29;20041;-73
2022/08/19 08:13:40;;;;;;;2.70;1.60;;;24.60;63.30;;;;;;6015091;29;20356;-75
2022/08/19 08:16:44;;;;;;;2.47;1.60;;;24.70;63.00;;;;;;6009741;29;20038;-74
2022/08/19 08:19:46;;;;;;;3.13;1.63;;;24.80;62.60;;;;;;6009108;29;20034;-74
2022/08/19 08:26:08;;;;;;;3.58;1.90;;;25.10;62.60;;;;;;6002466;29;20061;-74
2022/08/19 08:29:10;;;;;;;3.90;1.80;;;25.20;62.10;;;;;;6007934;29;20046;-76
2022/08/19 08:32:11;;;;;;;4.13;1.80;;;25.30;61.60;;;;;;6014220;29;20042;-73
2022/08/19 08:35:16;;;;;;;3.97;2.10;;;25.40;61.30;;;;;;6014239;29;20543;-74
2022/08/19 08:38:18;;;;;;;6.07;1.90;;;25.50;61.30;;;;;;6017907;29;20046;-75
2022/08/19 08:41:34;;;;;;;3.03;2.30;;;25.60;60.80;;;;;;6011419;29;20113;-75
2022/08/19 08:45:01;;;;;;;2.38;1.60;;;25.80;60.40;;;;;;5996971;29;20485;-75
2022/08/19 08:48:13;;;;;;;1.75;1.63;;;26.00;59.60;;;;;;6013004;29;20038;-73
2022/08/19 08:51:29;;;;;;;2.08;1.70;;;26.10;58.60;;;;;;6013697;29;20038;-73
2022/08/19 08:54:43;;;;;;;2.55;2.15;;;26.10;58.00;;;;;;6004458;29;20066;-74
2022/08/19 08:58:15;;;;;;;2.22;1.98;;;26.10;57.80;;;;;;6001183;29;20042;-75
2022/08/19 09:01:16;;;;;;;2.40;1.90;;;26.00;57.60;;;;;;5964381;29;20030;-75
2022/08/19 09:04:18;;;;;;;6.60;2.28;;;25.90;57.40;;;;;;5947990;29;20191;-74
2022/08/19 09:07:40;;;;;;;3.42;2.30;;;25.90;57.30;;;;;;5951323;29;20056;-74
2022/08/19 09:10:50;;;;;;;2.90;2.47;;;25.90;57.00;;;;;;5944513;29;20035;-74
2022/08/19 09:14:13;;;;;;;3.45;2.50;;;25.80;56.80;;;;;;5930657;29;20047;-74
2022/08/19 09:17:15;;;;;;;6.22;2.40;;;25.80;56.80;;;;;;5964633;29;20425;-75
2022/08/19 09:20:20;;;;;;;2.63;2.08;;;25.70;56.60;;;;;;5931628;29;20031;-73
2022/08/19 09:23:23;;;;;;;4.13;2.20;;;25.70;56.50;;;;;;5950010;29;20054;-73
2022/08/19 09:26:25;;;;;;;2.55;1.85;;;25.60;56.50;;;;;;5943083;29;20051;-74
2022/08/19 09:29:26;;;;;;;5.88;2.20;;;25.60;56.40;;;;;;5964768;29;20114;-75
2022/08/19 09:32:27;;;;;;;4.47;2.00;;;25.50;56.40;;;;;;5936004;29;20039;-74
2022/08/19 09:35:30;;;;;;;3.47;2.35;;;25.50;56.50;;;;;;5948087;29;20047;-73
2022/08/19 09:38:31;;;;;;;2.83;2.00;;;25.30;56.40;;;;;;5988752;29;20357;-74
2022/08/19 09:41:33;;;;;;;3.03;2.22;;;25.30;56.50;;;;;;6007794;29;20147;-74
2022/08/19 09:44:34;;;;;;;3.58;2.10;;;25.20;56.50;;;;;;6009963;29;20361;-74
2022/08/19 09:47:37;;;;;;;2.10;1.90;;;25.20;56.60;;;;;;6008752;29;20364;-74
2022/08/19 09:50:38;;;;;;;3.00;1.60;;;25.20;56.60;;;;;;6009781;29;20497;-74
2022/08/19 09:53:40;;;;;;;2.30;2.10;;;25.30;56.50;;;;;;6009039;29;20038;-74
2022/08/19 09:56:41;;;;;;;1.98;1.77;;;25.30;56.50;;;;;;6008336;29;20471;-74
2022/08/19 09:59:42;;;;;;;2.97;2.30;;;25.30;56.40;;;;;;6009301;29;20390;-74
2022/08/19 10:02:43;;;;;;;2.97;2.05;;;25.40;56.20;;;;;;5990830;29;20488;-74
2022/08/19 10:05:50;;;;;;;3.17;2.28;;;25.50;56.00;;;;;;6007968;29;20034;-75
2022/08/19 10:08:52;;;;;;;2.92;2.33;;;25.50;55.90;;;;;;6007851;29;20399;-74
2022/08/19 10:11:53;;;;;;;3.13;2.30;;;25.60;55.50;;;;;;6009320;29;20066;-74
2022/08/19 10:14:55;;;;;;;2.35;2.15;;;25.70;55.40;;;;;;6005593;29;20034;-74
2022/08/19 10:17:56;;;;;;;3.65;2.60;;;25.70;55.30;;;;;;6009391;29;20037;-75
2022/08/19 10:21:25;;;;;;;2.78;2.25;;;25.70;55.10;;;;;;5998174;29;20041;-74
2022/08/19 10:24:27;;;;;;;2.88;1.92;;;25.70;55.20;;;;;;6006286;29;20522;-74
2022/08/19 10:27:28;;;;;;;3.78;2.28;;;25.80;55.50;;;;;;6007783;29;20037;-75
2022/08/19 10:30:29;;;;;;;3.05;1.83;;;25.80;55.80;;;;;;6008843;29;20030;-74
2022/08/19 10:33:31;;;;;;;3.22;2.30;;;25.70;55.80;;;;;;5998996;29;20108;-76
2022/08/19 10:36:35;;;;;;;2.90;2.40;;;25.70;55.80;;;;;;5985906;29;20038;-76
2022/08/19 10:39:36;;;;;;;2.65;2.45;;;25.70;56.00;;;;;;5990533;29;20033;-74
2022/08/19 10:42:38;;;;;;;4.00;2.80;;;25.80;56.10;;;;;;5991198;29;20346;-74
2022/08/19 10:45:39;;;;;;;3.55;2.42;;;25.90;56.10;;;;;;6008199;29;20400;-75
2022/08/19 10:48:41;;;;;;;2.55;2.35;;;26.10;55.90;;;;;;6008489;29;20045;-75
2022/08/19 10:58:25;;;;;;;4.30;2.53;;;26.10;55.70;;;;;;6007313;29;20046;-74
2022/08/19 11:01:29;;;;;;;4.55;2.58;;;25.90;56.40;;;;;;5991809;29;20494;-75
2022/08/19 11:04:31;;;;;;;4.18;2.63;;;25.80;56.10;;;;;;6007691;29;20054;-75
2022/08/19 11:07:33;;;;;;;3.63;2.60;;;25.70;56.20;;;;;;6007112;29;20030;-75
2022/08/19 11:10:34;;;;;;;3.45;2.55;;;25.60;56.50;;;;;;5991388;29;20055;-74
2022/08/19 11:13:39;;;;;;;3.72;2.47;;;25.60;56.30;;;;;;6005402;29;20402;-74
2022/08/19 11:16:41;;;;;;;3.97;2.75;;;25.70;56.20;;;;;;6008810;29;20034;-74
2022/08/19 11:19:42;;;;;;;3.40;2.55;;;25.80;56.10;;;;;;5977106;29;20073;-75
2022/08/19 11:22:43;;;;;;;4.82;2.95;;;25.80;56.20;;;;;;5983157;29;20373;-75
2022/08/19 11:25:45;;;;;;;3.65;2.85;;;25.80;56.20;;;;;;6000465;29;20129;-74
2022/08/19 11:28:47;;;;;;;3.90;2.80;;;25.80;56.20;;;;;;6008551;29;20052;-74
2022/08/19 11:31:49;;;;;;;3.88;2.85;;;25.70;56.20;;;;;;6008574;29;20397;-74
2022/08/19 11:34:50;;;;;;;4.60;2.78;;;25.80;56.30;;;;;;6011132;29;20038;-73
2022/08/19 11:37:51;;;;;;;4.22;3.00;;;26.10;56.10;;;;;;6010440;29;20038;-75
2022/08/19 11:41:01;;;;;;;3.70;2.90;;;26.40;55.60;;;;;;6005862;29;20038;-74
2022/08/19 11:44:04;;;;;;;3.92;2.92;;;26.80;55.10;;;;;;6016434;29;20033;-74
2022/08/19 11:47:06;;;;;;;3.42;2.92;;;27.00;54.30;;;;;;6007192;29;20052;-74
2022/08/19 11:50:07;;;;;;;3.38;2.70;;;27.20;53.60;;;;;;6004783;29;20041;-74
2022/08/19 11:53:09;;;;;;;7.45;3.50;;;27.20;53.20;;;;;;6008358;29;20038;-74
2022/08/19 11:56:11;;;;;;;3.90;2.97;;;27.20;53.70;;;;;;6006123;29;20046;-74
2022/08/19 11:59:12;;;;;;;4.13;2.90;;;27.30;52.90;;;;;;6008533;29;20062;-74
2022/08/19 12:02:15;;;;;;;3.72;2.80;;;27.40;52.60;;;;;;6007163;29;20038;-74
2022/08/19 12:05:16;;;;;;;6.45;3.15;;;27.40;52.30;;;;;;5992691;29;20052;-76
2022/08/19 12:08:18;;;;;;;4.50;3.20;;;27.40;52.20;;;;;;6008830;29;20042;-74
2022/08/19 12:11:20;;;;;;;4.60;2.90;;;27.50;52.20;;;;;;6012201;29;20054;-74
2022/08/19 12:14:21;;;;;;;4.00;3.13;;;27.50;52.00;;;;;;6011928;29;20034;-75
2022/08/19 12:17:24;;;;;;;4.05;3.17;;;27.60;51.90;;;;;;6011726;29;20046;-74
2022/08/19 12:20:26;;;;;;;5.35;2.85;;;28.10;51.10;;;;;;6010789;29;20030;-74
2022/08/19 12:23:27;;;;;;;4.18;2.90;;;28.80;49.80;;;;;;6005115;29;20116;-75
2022/08/19 12:26:31;;;;;;;6.43;3.45;;;29.10;48.70;;;;;;6011360;29;20045;-74
2022/08/19 12:29:33;;;;;;;4.53;3.50;;;29.10;48.40;;;;;;6011078;29;20049;-74
2022/08/19 12:32:34;;;;;;;7.40;3.22;;;29.10;48.50;;;;;;6010786;29;20038;-74
2022/08/19 12:35:39;;;;;;;4.28;2.75;;;28.90;48.60;;;;;;6006422;29;20042;-75
2022/08/19 12:38:41;;;;;;;3.95;3.15;;;28.70;48.70;;;;;;6010935;29;20069;-74
2022/08/19 12:41:42;;;;;;;5.05;3.60;;;28.40;49.00;;;;;;6011185;29;20456;-74
2022/08/19 12:44:45;;;;;;;7.07;3.30;;;28.20;49.50;;;;;;5995873;29;20102;-76
2022/08/19 12:47:47;;;;;;;5.75;3.92;;;27.90;49.90;;;;;;6011351;29;20034;-75
2022/08/19 12:50:48;;;;;;;7.90;3.35;;;27.50;50.50;;;;;;6009433;29;20057;-75
2022/08/19 12:53:50;;;;;;;5.53;3.22;;;27.30;51.30;;;;;;6012005;29;20042;-75
2022/08/19 12:56:51;;;;;;;5.25;3.15;;;27.00;51.70;;;;;;6010940;29;20050;-74
2022/08/19 12:59:53;;;;;;;4.28;3.10;;;26.90;52.00;;;;;;5997334;29;20037;-74
2022/08/19 13:02:55;;;;;;;4.28;3.13;;;26.70;52.30;;;;;;6010652;29;20146;-75
2022/08/19 13:05:56;;;;;;;5.00;3.88;;;26.40;52.50;;;;;;6010756;29;20053;-74
2022/08/19 13:08:57;;;;;;;11.65;5.15;;;26.30;53.10;;;;;;6019531;29;20456;-74
2022/08/19 13:12:02;;;;;;;9.18;5.90;;;26.10;53.90;;;;;;6010638;29;20042;-75
2022/08/19 13:15:04;;;;;;;9.93;5.32;;;25.90;54.90;;;;;;6010211;29;20468;-74
2022/08/19 13:18:05;;;;;;;7.28;5.03;;;25.50;55.90;;;;;;6009473;29;20442;-74
2022/08/19 13:21:09;;;;;;;6.68;4.78;;;25.10;57.50;;;;;;6007864;29;20034;-74
2022/08/19 13:24:10;;;;;;;11.48;6.20;;;24.70;58.30;;;;;;6012215;29;20185;-75
2022/08/19 13:27:11;;;;;;;9.70;6.15;;;24.40;59.00;;;;;;5995795;29;20046;-75
2022/08/19 13:33:35;;;;;;;13.13;7.38;;;24.20;59.80;;;;;;5974211;29;20038;-75
2022/08/19 13:36:37;;;;;;;11.25;6.55;;;24.10;60.10;;;;;;5975955;29;20034;-75
2022/08/19 13:39:38;;;;;;;14.68;7.40;;;24.10;60.20;;;;;;6009934;29;20045;-75
2022/08/19 13:42:40;;;;;;;16.75;7.10;;;24.10;60.10;;;;;;6007295;29;20034;-75
2022/08/19 13:45:41;;;;;;;12.88;6.65;;;24.20;59.90;;;;;;5994174;29;20046;-74
2022/08/19 13:48:44;;;;;;;16.55;7.00;;;24.20;59.80;;;;;;6008171;29;20082;-75
2022/08/19 13:51:46;;;;;;;11.10;6.90;;;24.30;59.70;;;;;;6009876;29;20078;-75
2022/08/19 13:54:48;;;;;;;10.73;7.35;;;24.30;59.70;;;;;;5994123;29;20041;-75
2022/08/19 13:57:53;;;;;;;14.88;7.80;;;24.20;59.60;;;;;;6010238;29;20038;-74
2022/08/19 14:00:54;;;;;;;13.00;8.10;;;24.20;60.00;;;;;;5993844;29;20044;-74
2022/08/19 14:03:56;;;;;;;13.65;7.35;;;24.10;60.40;;;;;;6009083;29;20476;-74
2022/08/19 14:06:57;;;;;;;12.77;7.28;;;24.10;60.80;;;;;;5995663;29;20463;-74
2022/08/19 14:09:58;;;;;;;13.27;7.63;;;24.10;61.30;;;;;;6008923;29;20376;-73
2022/08/19 14:13:02;;;;;;;12.60;7.18;;;24.20;61.40;;;;;;5977918;29;20038;-74
2022/08/19 14:16:08;;;;;;;12.02;6.95;;;24.20;60.90;;;;;;6010336;29;20053;-74
2022/08/19 14:19:09;;;;;;;10.13;7.28;;;24.40;60.60;;;;;;6008800;29;20041;-75
2022/08/19 14:22:10;;;;;;;11.68;6.55;;;24.50;60.00;;;;;;6002648;29;20137;-75
2022/08/19 14:25:17;;;;;;;11.65;7.70;;;24.70;59.40;;;;;;5996457;29;20384;-75
2022/08/19 14:28:18;;;;;;;12.45;7.05;;;24.70;59.00;;;;;;6008105;29;20121;-74
2022/08/19 14:31:19;;;;;;;13.63;7.53;;;24.90;58.70;;;;;;6009198;29;20041;-74
2022/08/19 14:34:21;;;;;;;11.70;7.05;;;24.90;58.40;;;;;;6007985;29;20435;-74
2022/08/19 14:37:22;;;;;;;11.35;6.85;;;25.10;58.30;;;;;;6003966;29;20464;-75
2022/08/19 14:40:27;;;;;;;14.80;7.10;;;25.10;58.10;;;;;;6007686;29;20098;-74
2022/08/19 14:43:28;;;;;;;11.98;7.10;;;25.20;57.90;;;;;;6024221;29;20388;-74
2022/08/19 14:46:29;;;;;;;17.55;6.55;;;25.30;57.70;;;;;;6005053;29;20042;-74
2022/08/19 14:49:30;;;;;;;13.82;7.50;;;25.40;57.40;;;;;;5988660;29;20353;-74
2022/08/19 14:52:31;;;;;;;11.85;6.60;;;25.40;57.30;;;;;;6008479;29;20212;-74
2022/08/19 14:55:32;;;;;;;11.68;6.05;;;25.40;57.10;;;;;;6005709;29;20472;-73
2022/08/19 14:58:33;;;;;;;9.65;6.10;;;25.40;57.10;;;;;;6008263;29;20038;-73
2022/08/19 15:01:34;;;;;;;11.77;6.88;;;25.40;56.90;;;;;;6008472;29;20048;-74
2022/08/19 15:04:36;;;;;;;9.50;5.60;;;25.30;56.90;;;;;;6003215;29;20471;-74
2022/08/19 15:07:38;;;;;;;9.55;5.90;;;25.30;56.80;;;;;;6022198;29;20443;-74
2022/08/19 15:10:39;;;;;;;11.40;6.28;;;25.30;56.80;;;;;;6004949;29;20034;-74
2022/08/19 15:13:42;;;;;;;12.43;6.15;;;25.20;56.80;;;;;;6008246;29;20041;-73
2022/08/19 15:16:43;;;;;;;11.80;6.85;;;25.20;56.80;;;;;;6022486;29;20437;-74
2022/08/19 15:19:45;;;;;;;12.48;6.05;;;25.10;56.90;;;;;;6007371;29;20053;-74
2022/08/19 15:22:46;;;;;;;10.25;6.38;;;25.00;57.40;;;;;;6010082;29;20041;-74
2022/08/19 15:25:51;;;;;;;11.50;6.65;;;24.90;57.90;;;;;;6007154;29;20061;-74
2022/08/19 15:28:52;;;;;;;9.35;6.97;;;24.90;58.30;;;;;;6006696;29;20224;-74
2022/08/19 15:31:57;;;;;;;9.77;6.68;;;25.00;58.50;;;;;;6008511;29;20061;-75
2022/08/19 15:35:01;;;;;;;10.70;6.82;;;25.00;58.40;;;;;;5977408;29;20549;-73
2022/08/19 15:38:02;;;;;;;11.75;6.97;;;25.10;58.30;;;;;;6009897;29;20518;-75
2022/08/19 15:41:22;;;;;;;9.80;5.85;;;25.10;58.10;;;;;;5977262;29;20046;-74
2022/08/19 15:44:23;;;;;;;7.97;5.43;;;25.10;58.00;;;;;;5990770;29;20190;-75
2022/08/19 15:47:25;;;;;;;8.73;5.47;;;25.30;57.80;;;;;;6009309;29;20132;-74
2022/08/19 15:50:26;;;;;;;8.23;5.57;;;25.40;57.70;;;;;;5978180;29;20058;-74
2022/08/19 15:53:27;;;;;;;8.80;4.78;;;25.50;57.40;;;;;;6009135;29;20412;-74
2022/08/19 16:06:24;;;;;;;8.55;4.97;;;25.70;57.00;;;;;;5992937;29;20049;-74
2022/08/19 16:06:34;;;;;;;8.95;5.28;;;27.00;55.10;;;;;;6008301;29;20088;-74
2022/08/19 16:09:35;;;;;;;6.88;4.70;;;28.00;53.30;;;;;;5992805;29;20468;-74
2022/08/19 16:12:38;;;;;;;6.70;4.35;;;29.20;51.50;;;;;;5986791;29;20351;-74
2022/08/19 16:15:42;;;;;;;7.05;4.20;;;30.00;49.60;;;;;;6014034;29;20041;-75
2022/08/19 16:18:46;;;;;;;5.40;3.88;;;30.50;48.40;;;;;;6007705;29;20073;-75
2022/08/19 16:21:49;;;;;;;6.70;4.15;;;30.90;47.80;;;;;;6008576;29;20038;-74
2022/08/19 16:24:50;;;;;;;5.65;4.13;;;31.80;46.10;;;;;;6005018;29;20046;-75
2022/08/19 16:27:53;;;;;;;6.22;4.68;;;32.70;44.20;;;;;;6008974;29;20041;-75